sensor_id;sensor_type;location;lat;lon;timestamp;P1;durP1;ratioP1;P2;durP2;ratioP2
46006;SDS011;31738;50.188;8.524;2023-05-07T00:00:18;5.45;;;3.40;;
46006;SDS011;31738;50.188;8.524;2023-05-07T00:02:47;3.50;;;1.48;;
46006;SDS011;31738;50.188;8.524;2023-05-07T00:05:12;2.13;;;1.23;;
46006;SDS011;31738;50.188;8.524;2023-05-07T00:07:38;3.80;;;1.73;;
46006;SDS011;31738;50.188;8.524;2023-05-07T00:10:04;3.10;;;2.05;;
46006;SDS011;31738;50.188;8.524;2023-05-07T00:12:31;3.72;;;1.50;;
46006;SDS011;31738;50.188;8.524;2023-05-07T00:14:58;3.08;;;1.45;;
46006;SDS011;31738;50.188;8.524;2023-05-07T00:17:24;2.40;;;1.20;;
46006;SDS011;31738;50.188;8.524;2023-05-07T00:19:50;1.75;;;1.35;;
46006;SDS011;31738;50.188;8.524;2023-05-07T00:22:15;3.70;;;1.38;;
46006;SDS011;31738;50.188;8.524;2023-05-07T00:24:41;4.18;;;1.40;;
46006;SDS011;31738;50.188;8.524;2023-05-07T00:27:07;2.40;;;1.35;;
46006;SDS011;31738;50.188;8.524;2023-05-07T00:29:33;1.73;;;1.10;;
46006;SDS011;31738;50.188;8.524;2023-05-07T00:31:58;2.33;;;1.80;;
46006;SDS011;31738;50.188;8.524;2023-05-07T00:34:24;2.85;;;1.50;;
46006;SDS011;31738;50.188;8.524;2023-05-07T00:36:49;3.50;;;1.90;;
46006;SDS011;31738;50.188;8.524;2023-05-07T00:39:15;2.22;;;1.30;;
46006;SDS011;31738;50.188;8.524;2023-05-07T00:41:40;1.58;;;1.40;;
46006;SDS011;31738;50.188;8.524;2023-05-07T00:44:06;2.25;;;1.65;;
46006;SDS011;31738;50.188;8.524;2023-05-07T00:46:32;4.63;;;1.40;;
46006;SDS011;31738;50.188;8.524;2023-05-07T00:48:57;2.28;;;1.30;;
46006;SDS011;31738;50.188;8.524;2023-05-07T00:51:24;3.00;;;1.80;;
46006;SDS011;31738;50.188;8.524;2023-05-07T00:53:51;2.50;;;1.50;;
46006;SDS011;31738;50.188;8.524;2023-05-07T00:56:17;2.55;;;1.58;;
46006;SDS011;31738;50.188;8.524;2023-05-07T00:58:43;2.33;;;1.48;;
46006;SDS011;31738;50.188;8.524;2023-05-07T01:01:09;3.30;;;1.63;;
46006;SDS011;31738;50.188;8.524;2023-05-07T01:03:34;3.20;;;1.70;;
46006;SDS011;31738;50.188;8.524;2023-05-07T01:06:00;2.53;;;1.67;;
46006;SDS011;31738;50.188;8.524;2023-05-07T01:08:27;2.40;;;1.90;;
46006;SDS011;31738;50.188;8.524;2023-05-07T01:10:55;2.20;;;1.67;;
46006;SDS011;31738;50.188;8.524;2023-05-07T01:13:22;2.40;;;1.60;;
46006;SDS011;31738;50.188;8.524;2023-05-07T01:15:49;4.22;;;2.20;;
46006;SDS011;31738;50.188;8.524;2023-05-07T01:18:15;4.95;;;2.35;;
46006;SDS011;31738;50.188;8.524;2023-05-07T01:20:41;4.05;;;1.75;;
46006;SDS011;31738;50.188;8.524;2023-05-07T01:23:07;5.03;;;1.90;;
46006;SDS011;31738;50.188;8.524;2023-05-07T01:25:35;3.78;;;1.77;;
46006;SDS011;31738;50.188;8.524;2023-05-07T01:28:02;3.28;;;1.70;;
46006;SDS011;31738;50.188;8.524;2023-05-07T01:30:30;4.18;;;2.00;;
46006;SDS011;31738;50.188;8.524;2023-05-07T01:33:01;2.10;;;1.60;;
46006;SDS011;31738;50.188;8.524;2023-05-07T01:35:32;3.85;;;1.58;;
46006;SDS011;31738;50.188;8.524;2023-05-07T01:38:03;3.20;;;1.60;;
46006;SDS011;31738;50.188;8.524;2023-05-07T01:40:31;2.60;;;1.60;;
46006;SDS011;31738;50.188;8.524;2023-05-07T01:42:56;5.22;;;2.10;;
46006;SDS011;31738;50.188;8.524;2023-05-07T01:45:22;2.92;;;1.77;;
46006;SDS011;31738;50.188;8.524;2023-05-07T01:47:49;5.18;;;1.90;;
46006;SDS011;31738;50.188;8.524;2023-05-07T01:50:15;3.30;;;1.50;;
46006;SDS011;31738;50.188;8.524;2023-05-07T01:52:43;3.13;;;1.60;;
46006;SDS011;31738;50.188;8.524;2023-05-07T01:55:08;3.30;;;1.55;;
46006;SDS011;31738;50.188;8.524;2023-05-07T01:57:34;4.30;;;1.88;;
46006;SDS011;31738;50.188;8.524;2023-05-07T01:59:59;2.20;;;1.30;;
46006;SDS011;31738;50.188;8.524;2023-05-07T02:02:25;3.85;;;1.60;;
46006;SDS011;31738;50.188;8.524;2023-05-07T02:04:54;2.88;;;1.42;;
46006;SDS011;31738;50.188;8.524;2023-05-07T02:07:21;2.38;;;1.52;;
46006;SDS011;31738;50.188;8.524;2023-05-07T02:09:46;4.85;;;1.67;;
46006;SDS011;31738;50.188;8.524;2023-05-07T02:12:12;2.47;;;1.73;;
46006;SDS011;31738;50.188;8.524;2023-05-07T02:14:37;2.03;;;1.75;;
46006;SDS011;31738;50.188;8.524;2023-05-07T02:17:03;4.95;;;1.90;;
46006;SDS011;31738;50.188;8.524;2023-05-07T02:19:28;1.67;;;1.55;;
46006;SDS011;31738;50.188;8.524;2023-05-07T02:21:54;4.35;;;1.55;;
46006;SDS011;31738;50.188;8.524;2023-05-07T02:24:19;2.60;;;1.77;;
46006;SDS011;31738;50.188;8.524;2023-05-07T02:26:45;3.47;;;1.83;;
46006;SDS011;31738;50.188;8.524;2023-05-07T02:29:10;3.70;;;1.77;;
46006;SDS011;31738;50.188;8.524;2023-05-07T02:31:37;2.30;;;1.50;;
46006;SDS011;31738;50.188;8.524;2023-05-07T02:34:03;3.75;;;1.60;;
46006;SDS011;31738;50.188;8.524;2023-05-07T02:36:29;3.42;;;1.90;;
46006;SDS011;31738;50.188;8.524;2023-05-07T02:39:01;4.07;;;1.90;;
46006;SDS011;31738;50.188;8.524;2023-05-07T02:41:27;4.00;;;1.70;;
46006;SDS011;31738;50.188;8.524;2023-05-07T02:43:53;4.85;;;2.15;;
46006;SDS011;31738;50.188;8.524;2023-05-07T02:46:18;2.50;;;1.65;;
46006;SDS011;31738;50.188;8.524;2023-05-07T02:48:49;4.45;;;1.67;;
46006;SDS011;31738;50.188;8.524;2023-05-07T02:51:16;2.33;;;1.50;;
46006;SDS011;31738;50.188;8.524;2023-05-07T02:53:45;3.53;;;1.90;;
46006;SDS011;31738;50.188;8.524;2023-05-07T02:56:11;2.25;;;1.70;;
46006;SDS011;31738;50.188;8.524;2023-05-07T02:58:36;3.63;;;1.98;;
46006;SDS011;31738;50.188;8.524;2023-05-07T03:01:03;4.20;;;1.77;;
46006;SDS011;31738;50.188;8.524;2023-05-07T03:03:48;2.70;;;2.03;;
46006;SDS011;31738;50.188;8.524;2023-05-07T03:06:14;2.78;;;1.73;;
46006;SDS011;31738;50.188;8.524;2023-05-07T03:08:40;5.75;;;1.70;;
46006;SDS011;31738;50.188;8.524;2023-05-07T03:11:06;1.70;;;1.42;;
46006;SDS011;31738;50.188;8.524;2023-05-07T03:13:31;4.75;;;1.90;;
46006;SDS011;31738;50.188;8.524;2023-05-07T03:15:56;3.05;;;2.45;;
46006;SDS011;31738;50.188;8.524;2023-05-07T03:18:22;3.65;;;2.00;;
46006;SDS011;31738;50.188;8.524;2023-05-07T03:20:48;4.85;;;1.67;;
46006;SDS011;31738;50.188;8.524;2023-05-07T03:23:15;3.67;;;1.90;;
46006;SDS011;31738;50.188;8.524;2023-05-07T03:25:40;3.22;;;2.03;;
46006;SDS011;31738;50.188;8.524;2023-05-07T03:28:06;2.33;;;1.80;;
46006;SDS011;31738;50.188;8.524;2023-05-07T03:30:38;2.70;;;1.60;;
46006;SDS011;31738;50.188;8.524;2023-05-07T03:33:04;4.15;;;2.22;;
46006;SDS011;31738;50.188;8.524;2023-05-07T03:35:29;4.80;;;2.10;;
46006;SDS011;31738;50.188;8.524;2023-05-07T03:37:55;3.47;;;1.98;;
46006;SDS011;31738;50.188;8.524;2023-05-07T03:40:21;3.17;;;1.75;;
46006;SDS011;31738;50.188;8.524;2023-05-07T03:42:50;4.07;;;2.05;;
46006;SDS011;31738;50.188;8.524;2023-05-07T03:45:18;4.88;;;1.98;;
46006;SDS011;31738;50.188;8.524;2023-05-07T03:47:49;2.63;;;2.17;;
46006;SDS011;31738;50.188;8.524;2023-05-07T03:50:18;3.35;;;2.20;;
46006;SDS011;31738;50.188;8.524;2023-05-07T03:52:44;4.20;;;1.95;;
46006;SDS011;31738;50.188;8.524;2023-05-07T03:55:10;3.17;;;1.90;;
46006;SDS011;31738;50.188;8.524;2023-05-07T03:57:38;4.30;;;2.13;;
46006;SDS011;31738;50.188;8.524;2023-05-07T04:00:04;6.40;;;1.80;;
46006;SDS011;31738;50.188;8.524;2023-05-07T04:02:34;4.13;;;2.00;;
46006;SDS011;31738;50.188;8.524;2023-05-07T04:05:00;4.38;;;2.10;;
46006;SDS011;31738;50.188;8.524;2023-05-07T04:07:26;4.28;;;1.88;;
46006;SDS011;31738;50.188;8.524;2023-05-07T04:09:51;2.50;;;2.00;;
46006;SDS011;31738;50.188;8.524;2023-05-07T04:12:17;4.97;;;1.88;;
46006;SDS011;31738;50.188;8.524;2023-05-07T04:14:42;3.80;;;1.90;;
46006;SDS011;31738;50.188;8.524;2023-05-07T04:17:08;3.00;;;1.70;;
46006;SDS011;31738;50.188;8.524;2023-05-07T04:19:36;2.00;;;1.80;;
46006;SDS011;31738;50.188;8.524;2023-05-07T04:22:02;4.45;;;2.03;;
46006;SDS011;31738;50.188;8.524;2023-05-07T04:24:30;5.05;;;2.35;;
46006;SDS011;31738;50.188;8.524;2023-05-07T04:26:57;3.60;;;2.10;;
46006;SDS011;31738;50.188;8.524;2023-05-07T04:29:24;3.55;;;2.47;;
46006;SDS011;31738;50.188;8.524;2023-05-07T04:31:49;4.57;;;2.40;;
46006;SDS011;31738;50.188;8.524;2023-05-07T04:34:15;3.28;;;2.17;;
46006;SDS011;31738;50.188;8.524;2023-05-07T04:36:41;5.40;;;2.22;;
46006;SDS011;31738;50.188;8.524;2023-05-07T04:39:10;4.18;;;1.90;;
46006;SDS011;31738;50.188;8.524;2023-05-07T04:41:37;6.35;;;2.25;;
46006;SDS011;31738;50.188;8.524;2023-05-07T04:44:04;3.10;;;1.95;;
46006;SDS011;31738;50.188;8.524;2023-05-07T04:46:31;4.57;;;2.00;;
46006;SDS011;31738;50.188;8.524;2023-05-07T04:48:57;6.50;;;2.22;;
46006;SDS011;31738;50.188;8.524;2023-05-07T04:51:22;2.05;;;1.80;;
46006;SDS011;31738;50.188;8.524;2023-05-07T04:53:48;4.90;;;1.88;;
46006;SDS011;31738;50.188;8.524;2023-05-07T04:56:14;3.63;;;2.25;;
46006;SDS011;31738;50.188;8.524;2023-05-07T04:58:42;3.97;;;2.00;;
46006;SDS011;31738;50.188;8.524;2023-05-07T05:01:08;3.85;;;1.88;;
46006;SDS011;31738;50.188;8.524;2023-05-07T05:03:34;3.95;;;1.90;;
46006;SDS011;31738;50.188;8.524;2023-05-07T05:05:59;3.50;;;2.15;;
46006;SDS011;31738;50.188;8.524;2023-05-07T05:08:27;4.22;;;2.17;;
46006;SDS011;31738;50.188;8.524;2023-05-07T05:10:53;5.40;;;2.15;;
46006;SDS011;31738;50.188;8.524;2023-05-07T05:13:19;4.18;;;1.90;;
46006;SDS011;31738;50.188;8.524;2023-05-07T05:15:45;5.80;;;2.00;;
46006;SDS011;31738;50.188;8.524;2023-05-07T05:18:11;3.25;;;2.22;;
46006;SDS011;31738;50.188;8.524;2023-05-07T05:20:38;3.25;;;1.80;;
46006;SDS011;31738;50.188;8.524;2023-05-07T05:23:03;3.53;;;1.92;;
46006;SDS011;31738;50.188;8.524;2023-05-07T05:25:30;3.45;;;2.00;;
46006;SDS011;31738;50.188;8.524;2023-05-07T05:27:56;4.85;;;2.08;;
46006;SDS011;31738;50.188;8.524;2023-05-07T05:30:22;2.50;;;1.92;;
46006;SDS011;31738;50.188;8.524;2023-05-07T05:32:48;3.17;;;2.15;;
46006;SDS011;31738;50.188;8.524;2023-05-07T05:35:13;2.38;;;2.08;;
46006;SDS011;31738;50.188;8.524;2023-05-07T05:37:40;4.32;;;2.28;;
46006;SDS011;31738;50.188;8.524;2023-05-07T05:40:06;4.32;;;2.20;;
46006;SDS011;31738;50.188;8.524;2023-05-07T05:42:33;3.33;;;2.45;;
46006;SDS011;31738;50.188;8.524;2023-05-07T05:44:58;3.65;;;2.20;;
46006;SDS011;31738;50.188;8.524;2023-05-07T05:47:25;4.15;;;2.38;;
46006;SDS011;31738;50.188;8.524;2023-05-07T05:49:53;3.47;;;2.13;;
46006;SDS011;31738;50.188;8.524;2023-05-07T05:52:19;4.60;;;2.58;;
46006;SDS011;31738;50.188;8.524;2023-05-07T05:54:45;4.72;;;2.30;;
46006;SDS011;31738;50.188;8.524;2023-05-07T05:57:11;2.45;;;2.00;;
46006;SDS011;31738;50.188;8.524;2023-05-07T05:59:36;3.42;;;2.13;;
46006;SDS011;31738;50.188;8.524;2023-05-07T06:02:02;5.63;;;2.08;;
46006;SDS011;31738;50.188;8.524;2023-05-07T06:04:28;3.13;;;2.47;;
46006;SDS011;31738;50.188;8.524;2023-05-07T06:06:54;2.63;;;2.28;;
46006;SDS011;31738;50.188;8.524;2023-05-07T06:09:20;4.15;;;2.35;;
46006;SDS011;31738;50.188;8.524;2023-05-07T06:11:46;4.10;;;2.42;;
46006;SDS011;31738;50.188;8.524;2023-05-07T06:14:12;3.58;;;2.60;;
46006;SDS011;31738;50.188;8.524;2023-05-07T06:16:38;3.78;;;2.20;;
46006;SDS011;31738;50.188;8.524;2023-05-07T06:19:05;3.90;;;2.55;;
46006;SDS011;31738;50.188;8.524;2023-05-07T06:21:30;4.55;;;2.70;;
46006;SDS011;31738;50.188;8.524;2023-05-07T06:23:56;3.72;;;2.30;;
46006;SDS011;31738;50.188;8.524;2023-05-07T06:26:22;4.05;;;2.55;;
46006;SDS011;31738;50.188;8.524;2023-05-07T06:28:47;4.07;;;2.70;;
46006;SDS011;31738;50.188;8.524;2023-05-07T06:31:15;3.05;;;2.63;;
46006;SDS011;31738;50.188;8.524;2023-05-07T06:33:46;5.57;;;2.70;;
46006;SDS011;31738;50.188;8.524;2023-05-07T06:36:13;3.45;;;2.80;;
46006;SDS011;31738;50.188;8.524;2023-05-07T06:38:38;5.95;;;2.42;;
46006;SDS011;31738;50.188;8.524;2023-05-07T06:41:05;3.20;;;2.90;;
46006;SDS011;31738;50.188;8.524;2023-05-07T06:43:31;3.10;;;2.80;;
46006;SDS011;31738;50.188;8.524;2023-05-07T06:46:31;3.17;;;2.67;;
46006;SDS011;31738;50.188;8.524;2023-05-07T06:48:57;4.13;;;2.60;;
46006;SDS011;31738;50.188;8.524;2023-05-07T06:51:22;4.32;;;2.90;;
46006;SDS011;31738;50.188;8.524;2023-05-07T06:53:49;4.65;;;3.05;;
46006;SDS011;31738;50.188;8.524;2023-05-07T06:56:14;3.83;;;2.50;;
46006;SDS011;31738;50.188;8.524;2023-05-07T06:58:40;3.92;;;2.60;;
46006;SDS011;31738;50.188;8.524;2023-05-07T07:01:06;3.83;;;2.90;;
46006;SDS011;31738;50.188;8.524;2023-05-07T07:03:33;5.00;;;2.85;;
46006;SDS011;31738;50.188;8.524;2023-05-07T07:05:58;4.85;;;2.75;;
46006;SDS011;31738;50.188;8.524;2023-05-07T07:08:25;3.03;;;2.70;;
46006;SDS011;31738;50.188;8.524;2023-05-07T07:10:51;3.85;;;2.90;;
46006;SDS011;31738;50.188;8.524;2023-05-07T07:13:16;3.85;;;3.08;;
46006;SDS011;31738;50.188;8.524;2023-05-07T07:15:42;3.33;;;3.00;;
46006;SDS011;31738;50.188;8.524;2023-05-07T07:18:08;3.67;;;2.70;;
46006;SDS011;31738;50.188;8.524;2023-05-07T07:20:33;3.65;;;3.30;;
46006;SDS011;31738;50.188;8.524;2023-05-07T07:22:59;5.60;;;2.97;;
46006;SDS011;31738;50.188;8.524;2023-05-07T07:25:25;3.75;;;3.28;;
46006;SDS011;31738;50.188;8.524;2023-05-07T07:27:51;7.45;;;3.28;;
46006;SDS011;31738;50.188;8.524;2023-05-07T07:30:16;4.95;;;3.80;;
46006;SDS011;31738;50.188;8.524;2023-05-07T07:32:45;5.65;;;3.25;;
46006;SDS011;31738;50.188;8.524;2023-05-07T07:35:11;5.20;;;3.20;;
46006;SDS011;31738;50.188;8.524;2023-05-07T07:37:38;6.63;;;3.30;;
46006;SDS011;31738;50.188;8.524;2023-05-07T07:40:03;4.43;;;3.00;;
46006;SDS011;31738;50.188;8.524;2023-05-07T07:42:31;4.57;;;3.30;;
46006;SDS011;31738;50.188;8.524;2023-05-07T07:44:56;6.75;;;3.50;;
46006;SDS011;31738;50.188;8.524;2023-05-07T07:47:24;5.68;;;3.72;;
46006;SDS011;31738;50.188;8.524;2023-05-07T07:49:51;4.13;;;3.20;;
46006;SDS011;31738;50.188;8.524;2023-05-07T07:52:18;7.40;;;3.20;;
46006;SDS011;31738;50.188;8.524;2023-05-07T07:54:44;5.72;;;3.45;;
46006;SDS011;31738;50.188;8.524;2023-05-07T07:57:10;5.88;;;3.50;;
46006;SDS011;31738;50.188;8.524;2023-05-07T07:59:36;4.80;;;3.65;;
46006;SDS011;31738;50.188;8.524;2023-05-07T08:02:01;3.78;;;3.28;;
46006;SDS011;31738;50.188;8.524;2023-05-07T08:04:28;6.22;;;3.70;;
46006;SDS011;31738;50.188;8.524;2023-05-07T08:06:57;4.80;;;3.60;;
46006;SDS011;31738;50.188;8.524;2023-05-07T08:09:24;4.90;;;3.42;;
46006;SDS011;31738;50.188;8.524;2023-05-07T08:11:50;6.32;;;3.53;;
46006;SDS011;31738;50.188;8.524;2023-05-07T08:14:16;5.80;;;3.90;;
46006;SDS011;31738;50.188;8.524;2023-05-07T08:16:44;8.45;;;4.15;;
46006;SDS011;31738;50.188;8.524;2023-05-07T08:19:10;4.75;;;3.20;;
46006;SDS011;31738;50.188;8.524;2023-05-07T08:21:38;4.18;;;3.53;;
46006;SDS011;31738;50.188;8.524;2023-05-07T08:24:04;5.15;;;3.70;;
46006;SDS011;31738;50.188;8.524;2023-05-07T08:26:30;6.03;;;4.25;;
46006;SDS011;31738;50.188;8.524;2023-05-07T08:28:56;6.78;;;3.63;;
46006;SDS011;31738;50.188;8.524;2023-05-07T08:31:21;5.63;;;4.25;;
46006;SDS011;31738;50.188;8.524;2023-05-07T08:33:47;6.53;;;4.18;;
46006;SDS011;31738;50.188;8.524;2023-05-07T08:36:12;5.10;;;4.00;;
46006;SDS011;31738;50.188;8.524;2023-05-07T08:38:38;4.35;;;3.95;;
46006;SDS011;31738;50.188;8.524;2023-05-07T08:41:06;5.03;;;4.00;;
46006;SDS011;31738;50.188;8.524;2023-05-07T08:43:35;5.85;;;4.47;;
46006;SDS011;31738;50.188;8.524;2023-05-07T08:46:01;6.35;;;4.40;;
46006;SDS011;31738;50.188;8.524;2023-05-07T08:48:31;6.47;;;4.13;;
46006;SDS011;31738;50.188;8.524;2023-05-07T08:51:05;6.10;;;4.20;;
46006;SDS011;31738;50.188;8.524;2023-05-07T08:53:30;7.85;;;4.25;;
46006;SDS011;31738;50.188;8.524;2023-05-07T08:55:57;7.53;;;4.60;;
46006;SDS011;31738;50.188;8.524;2023-05-07T08:58:23;7.30;;;5.13;;
46006;SDS011;31738;50.188;8.524;2023-05-07T09:00:49;5.78;;;4.68;;
46006;SDS011;31738;50.188;8.524;2023-05-07T09:03:18;6.20;;;4.75;;
46006;SDS011;31738;50.188;8.524;2023-05-07T09:05:47;5.65;;;5.15;;
46006;SDS011;31738;50.188;8.524;2023-05-07T09:08:14;7.32;;;5.20;;
46006;SDS011;31738;50.188;8.524;2023-05-07T09:10:41;10.80;;;5.30;;
46006;SDS011;31738;50.188;8.524;2023-05-07T09:13:07;6.93;;;5.55;;
46006;SDS011;31738;50.188;8.524;2023-05-07T09:15:33;6.30;;;4.75;;
46006;SDS011;31738;50.188;8.524;2023-05-07T09:17:59;8.23;;;5.50;;
46006;SDS011;31738;50.188;8.524;2023-05-07T09:20:27;8.38;;;5.20;;
46006;SDS011;31738;50.188;8.524;2023-05-07T09:22:55;9.65;;;5.35;;
46006;SDS011;31738;50.188;8.524;2023-05-07T09:25:29;8.18;;;5.80;;
46006;SDS011;31738;50.188;8.524;2023-05-07T09:27:59;7.13;;;5.40;;
46006;SDS011;31738;50.188;8.524;2023-05-07T09:30:32;6.32;;;5.38;;
46006;SDS011;31738;50.188;8.524;2023-05-07T09:33:01;7.93;;;5.45;;
46006;SDS011;31738;50.188;8.524;2023-05-07T09:35:29;8.80;;;5.55;;
46006;SDS011;31738;50.188;8.524;2023-05-07T09:38:00;5.65;;;5.00;;
46006;SDS011;31738;50.188;8.524;2023-05-07T09:40:27;6.13;;;5.53;;
46006;SDS011;31738;50.188;8.524;2023-05-07T09:42:56;7.15;;;5.32;;
46006;SDS011;31738;50.188;8.524;2023-05-07T09:45:34;5.82;;;5.20;;
46006;SDS011;31738;50.188;8.524;2023-05-07T09:48:00;6.65;;;5.63;;
46006;SDS011;31738;50.188;8.524;2023-05-07T09:50:32;6.15;;;5.28;;
46006;SDS011;31738;50.188;8.524;2023-05-07T09:53:02;5.55;;;5.05;;
46006;SDS011;31738;50.188;8.524;2023-05-07T09:55:28;5.65;;;5.15;;
46006;SDS011;31738;50.188;8.524;2023-05-07T09:57:54;7.35;;;5.60;;
46006;SDS011;31738;50.188;8.524;2023-05-07T10:00:21;6.25;;;5.63;;
46006;SDS011;31738;50.188;8.524;2023-05-07T10:02:48;6.40;;;5.47;;
46006;SDS011;31738;50.188;8.524;2023-05-07T10:05:21;5.78;;;5.20;;
46006;SDS011;31738;50.188;8.524;2023-05-07T10:07:48;6.45;;;5.10;;
46006;SDS011;31738;50.188;8.524;2023-05-07T10:10:16;6.70;;;5.20;;
46006;SDS011;31738;50.188;8.524;2023-05-07T10:12:44;5.82;;;5.00;;
46006;SDS011;31738;50.188;8.524;2023-05-07T10:15:16;6.55;;;5.68;;
46006;SDS011;31738;50.188;8.524;2023-05-07T10:17:46;5.97;;;4.82;;
46006;SDS011;31738;50.188;8.524;2023-05-07T10:20:14;6.80;;;4.82;;
46006;SDS011;31738;50.188;8.524;2023-05-07T10:22:43;5.78;;;4.80;;
46006;SDS011;31738;50.188;8.524;2023-05-07T10:25:18;7.47;;;4.47;;
46006;SDS011;31738;50.188;8.524;2023-05-07T10:27:49;5.40;;;4.90;;
46006;SDS011;31738;50.188;8.524;2023-05-07T10:30:39;5.72;;;4.00;;
46006;SDS011;31738;50.188;8.524;2023-05-07T10:33:15;5.68;;;5.07;;
46006;SDS011;31738;50.188;8.524;2023-05-07T10:35:44;5.55;;;4.80;;
46006;SDS011;31738;50.188;8.524;2023-05-07T10:38:12;5.30;;;4.40;;
46006;SDS011;31738;50.188;8.524;2023-05-07T10:40:40;5.22;;;4.72;;
46006;SDS011;31738;50.188;8.524;2023-05-07T10:43:07;7.38;;;4.70;;
46006;SDS011;31738;50.188;8.524;2023-05-07T10:48:38;6.13;;;4.40;;
46006;SDS011;31738;50.188;8.524;2023-05-07T10:51:23;5.10;;;4.40;;
46006;SDS011;31738;50.188;8.524;2023-05-07T10:56:34;7.68;;;4.78;;
46006;SDS011;31738;50.188;8.524;2023-05-07T11:01:52;5.85;;;5.05;;
46006;SDS011;31738;50.188;8.524;2023-05-07T11:04:30;5.25;;;4.55;;
46006;SDS011;31738;50.188;8.524;2023-05-07T11:12:17;9.10;;;4.60;;
46006;SDS011;31738;50.188;8.524;2023-05-07T11:17:34;4.30;;;3.53;;
46006;SDS011;31738;50.188;8.524;2023-05-07T11:20:16;7.43;;;4.13;;
46006;SDS011;31738;50.188;8.524;2023-05-07T11:22:50;6.70;;;4.78;;
46006;SDS011;31738;50.188;8.524;2023-05-07T11:25:26;5.40;;;4.38;;
46006;SDS011;31738;50.188;8.524;2023-05-07T11:28:07;5.60;;;3.75;;
46006;SDS011;31738;50.188;8.524;2023-05-07T11:30:41;4.90;;;4.40;;
46006;SDS011;31738;50.188;8.524;2023-05-07T11:33:09;5.47;;;4.20;;
46006;SDS011;31738;50.188;8.524;2023-05-07T11:35:36;5.78;;;4.28;;
46006;SDS011;31738;50.188;8.524;2023-05-07T11:38:02;4.10;;;3.70;;
46006;SDS011;31738;50.188;8.524;2023-05-07T11:40:30;5.82;;;3.30;;
46006;SDS011;31738;50.188;8.524;2023-05-07T11:42:56;4.15;;;3.75;;
46006;SDS011;31738;50.188;8.524;2023-05-07T11:45:24;4.10;;;3.67;;
46006;SDS011;31738;50.188;8.524;2023-05-07T11:47:53;6.65;;;3.70;;
46006;SDS011;31738;50.188;8.524;2023-05-07T11:50:18;5.40;;;3.80;;
46006;SDS011;31738;50.188;8.524;2023-05-07T11:52:53;4.53;;;3.40;;
46006;SDS011;31738;50.188;8.524;2023-05-07T11:55:19;4.70;;;3.65;;
46006;SDS011;31738;50.188;8.524;2023-05-07T11:57:45;6.15;;;3.70;;
46006;SDS011;31738;50.188;8.524;2023-05-07T12:00:10;4.10;;;3.70;;
46006;SDS011;31738;50.188;8.524;2023-05-07T12:02:39;5.68;;;3.78;;
46006;SDS011;31738;50.188;8.524;2023-05-07T12:05:04;4.32;;;3.55;;
46006;SDS011;31738;50.188;8.524;2023-05-07T12:07:30;3.63;;;3.33;;
46006;SDS011;31738;50.188;8.524;2023-05-07T12:09:58;5.32;;;3.97;;
46006;SDS011;31738;50.188;8.524;2023-05-07T12:12:24;6.93;;;4.40;;
46006;SDS011;31738;50.188;8.524;2023-05-07T12:14:49;5.28;;;3.67;;
46006;SDS011;31738;50.188;8.524;2023-05-07T12:17:15;4.00;;;3.60;;
46006;SDS011;31738;50.188;8.524;2023-05-07T12:19:42;5.25;;;3.47;;
46006;SDS011;31738;50.188;8.524;2023-05-07T12:22:08;3.67;;;3.38;;
46006;SDS011;31738;50.188;8.524;2023-05-07T12:24:47;4.68;;;3.30;;
46006;SDS011;31738;50.188;8.524;2023-05-07T12:27:14;4.57;;;3.40;;
46006;SDS011;31738;50.188;8.524;2023-05-07T12:29:43;4.18;;;2.67;;
46006;SDS011;31738;50.188;8.524;2023-05-07T12:32:15;4.53;;;2.65;;
46006;SDS011;31738;50.188;8.524;2023-05-07T12:34:42;3.88;;;3.00;;
46006;SDS011;31738;50.188;8.524;2023-05-07T12:37:08;3.00;;;2.35;;
46006;SDS011;31738;50.188;8.524;2023-05-07T12:39:34;2.92;;;2.63;;
46006;SDS011;31738;50.188;8.524;2023-05-07T12:41:59;5.18;;;2.95;;
46006;SDS011;31738;50.188;8.524;2023-05-07T12:44:25;3.78;;;2.97;;
46006;SDS011;31738;50.188;8.524;2023-05-07T12:46:55;3.03;;;2.63;;
46006;SDS011;31738;50.188;8.524;2023-05-07T12:49:20;4.63;;;2.83;;
46006;SDS011;31738;50.188;8.524;2023-05-07T12:51:46;3.78;;;2.78;;
46006;SDS011;31738;50.188;8.524;2023-05-07T12:54:14;5.15;;;3.20;;
46006;SDS011;31738;50.188;8.524;2023-05-07T12:57:00;3.55;;;2.85;;
46006;SDS011;31738;50.188;8.524;2023-05-07T13:02:01;5.40;;;3.40;;
46006;SDS011;31738;50.188;8.524;2023-05-07T13:04:27;3.33;;;3.03;;
46006;SDS011;31738;50.188;8.524;2023-05-07T13:06:52;5.25;;;3.13;;
46006;SDS011;31738;50.188;8.524;2023-05-07T13:09:18;5.10;;;3.42;;
46006;SDS011;31738;50.188;8.524;2023-05-07T13:11:43;4.75;;;3.83;;
46006;SDS011;31738;50.188;8.524;2023-05-07T13:14:11;5.88;;;3.97;;
46006;SDS011;31738;50.188;8.524;2023-05-07T13:16:40;6.18;;;3.58;;
46006;SDS011;31738;50.188;8.524;2023-05-07T13:19:05;4.05;;;3.70;;
46006;SDS011;31738;50.188;8.524;2023-05-07T13:21:31;4.40;;;4.00;;
46006;SDS011;31738;50.188;8.524;2023-05-07T13:23:58;6.00;;;3.70;;
46006;SDS011;31738;50.188;8.524;2023-05-07T13:26:23;4.45;;;3.95;;
46006;SDS011;31738;50.188;8.524;2023-05-07T13:28:49;5.65;;;3.70;;
46006;SDS011;31738;50.188;8.524;2023-05-07T13:31:16;4.28;;;3.72;;
46006;SDS011;31738;50.188;8.524;2023-05-07T13:33:42;5.15;;;4.03;;
46006;SDS011;31738;50.188;8.524;2023-05-07T13:36:08;4.88;;;4.00;;
46006;SDS011;31738;50.188;8.524;2023-05-07T13:38:33;5.28;;;3.47;;
46006;SDS011;31738;50.188;8.524;2023-05-07T13:40:59;3.83;;;3.42;;
46006;SDS011;31738;50.188;8.524;2023-05-07T13:43:24;4.70;;;4.05;;
46006;SDS011;31738;50.188;8.524;2023-05-07T13:45:50;4.47;;;3.65;;
46006;SDS011;31738;50.188;8.524;2023-05-07T13:48:15;5.10;;;3.53;;
46006;SDS011;31738;50.188;8.524;2023-05-07T13:50:41;5.35;;;4.28;;
46006;SDS011;31738;50.188;8.524;2023-05-07T13:53:07;5.63;;;3.45;;
46006;SDS011;31738;50.188;8.524;2023-05-07T13:55:33;6.13;;;4.28;;
46006;SDS011;31738;50.188;8.524;2023-05-07T13:57:59;5.05;;;3.67;;
46006;SDS011;31738;50.188;8.524;2023-05-07T14:00:26;5.82;;;3.95;;
46006;SDS011;31738;50.188;8.524;2023-05-07T14:02:53;6.13;;;4.35;;
46006;SDS011;31738;50.188;8.524;2023-05-07T14:05:20;5.00;;;3.60;;
46006;SDS011;31738;50.188;8.524;2023-05-07T14:07:46;5.68;;;3.78;;
46006;SDS011;31738;50.188;8.524;2023-05-07T14:10:12;5.25;;;4.10;;
46006;SDS011;31738;50.188;8.524;2023-05-07T14:12:38;5.38;;;3.50;;
46006;SDS011;31738;50.188;8.524;2023-05-07T14:15:04;7.10;;;3.40;;
46006;SDS011;31738;50.188;8.524;2023-05-07T14:17:30;3.78;;;3.25;;
46006;SDS011;31738;50.188;8.524;2023-05-07T14:19:55;4.40;;;3.97;;
46006;SDS011;31738;50.188;8.524;2023-05-07T14:22:21;6.30;;;3.92;;
46006;SDS011;31738;50.188;8.524;2023-05-07T14:24:47;4.03;;;3.63;;
46006;SDS011;31738;50.188;8.524;2023-05-07T14:27:14;7.20;;;3.65;;
46006;SDS011;31738;50.188;8.524;2023-05-07T14:29:40;3.83;;;3.42;;
46006;SDS011;31738;50.188;8.524;2023-05-07T14:32:05;5.32;;;3.30;;
46006;SDS011;31738;50.188;8.524;2023-05-07T14:34:31;4.00;;;3.25;;
46006;SDS011;31738;50.188;8.524;2023-05-07T14:36:57;3.75;;;3.42;;
46006;SDS011;31738;50.188;8.524;2023-05-07T14:39:23;3.65;;;3.30;;
46006;SDS011;31738;50.188;8.524;2023-05-07T14:41:48;4.05;;;3.33;;
46006;SDS011;31738;50.188;8.524;2023-05-07T14:44:14;5.30;;;3.50;;
46006;SDS011;31738;50.188;8.524;2023-05-07T14:46:39;5.05;;;3.38;;
46006;SDS011;31738;50.188;8.524;2023-05-07T14:49:04;3.50;;;3.20;;
46006;SDS011;31738;50.188;8.524;2023-05-07T14:51:30;3.97;;;3.50;;
46006;SDS011;31738;50.188;8.524;2023-05-07T14:53:58;5.10;;;3.65;;
46006;SDS011;31738;50.188;8.524;2023-05-07T14:56:23;5.07;;;3.80;;
46006;SDS011;31738;50.188;8.524;2023-05-07T14:58:49;4.13;;;3.50;;
46006;SDS011;31738;50.188;8.524;2023-05-07T15:01:15;4.50;;;3.78;;
46006;SDS011;31738;50.188;8.524;2023-05-07T15:03:40;4.90;;;3.88;;
46006;SDS011;31738;50.188;8.524;2023-05-07T15:06:06;3.65;;;3.35;;